PAESNOHOMISH COUNTY (PAINE FLD)
METARs for airports near PAE, sorted by distance:
N 0 nm 606' KPAE 161053Z 15010KT 10SM -RA SCT038 BKN065 OVC085 12/09 A3006
N 16 nm 141' KAWO 161056Z 12010G19KT 10SM -RA FEW055 OVC090 12/09 A3005
S 22 nm 21' KBFI 161053Z 14006KT 10SM BKN070 OVC110 13/09 A3007
S 25 nm 32' KRNT 161053Z 00000KT 10SM BKN050 OVC110 13/09 A3006
S 27 nm 432' KSEA 161053Z 15005KT 10SM FEW042 FEW060 OVC100 12/09 A3007
NW 30 nm 47' KNUW 161056Z 13023G32KT 10SM FEW035 FEW075 BKN100 14/09 A3000
SW 31 nm 444' KPWT 161056Z 22003KT 10SM OVC033 11/11 A3007
N 34 nm 145' KBVS 161135Z 11007G12KT 8SM BKN034 BKN041 OVC070 12/10 A3001
S 40 nm 294' KTIW 161053Z 00000KT 10SM FEW050 OVC060 12/10 A3007
S 46 nm 322' KTCM 161058Z 19004KT 10SM FEW044 BKN060 OVC080 13/08 A3007
NW 47 nm 112' KFHR 161053Z 13016G27KT 10SM FEW020 OVC080 13/09 A2997
W 47 nm 13' KNOW 161135Z 00000KT 10SM BKN075 BKN120 10/10 A2992
S 48 nm 537' KPLU 161135Z 18004KT 10SM OVC050 15/06 A3007
W 50 nm 291' KCLM 161115Z 00000KT 5SM -RA BR FEW007 BKN095 BKN110 10/09 A2993
S 51 nm 301' KGRF 161058Z 00000KT 10SM BKN046 OVC055 13/08 A3006
SW 53 nm 272' KSHN 161053Z 00000KT 10SM OVC035 12/11 A3004
N 54 nm 171' KBLI 161053Z 10SM OVC070 14/09 A2997
NW 54 nm 34' KORS 161135Z 18015G24KT 6SM -RA HZ FEW026 SCT047 OVC070 14/10 A2992
SW 61 nm 207' KOLM 161054Z 20007KT 10SM BKN045 OVC060 13/08 A3007
NW 63 nm 64' CYYJ 161131Z 14013G20KT 10SM RA FEW015 OVC052 12/12 A2993
S 79 nm 177' KCLS 161135Z 18007KT 150V210 10SM BKN047 OVC065 12/10 A3009
NW 85 nm 14' CYVR 161122Z 09011KT 15SM SCT031 OVC051 11/11 A2996
SW 87 nm 17' KHQM 161125Z 18010KT 10SM BKN020 OVC035 15/11 A3004
SE 88 nm 1763' KELN 161053Z 06003KT 10SM CLR 02/M01 A3011
E 89 nm 1248' KEAT 161055Z 29006KT 10SM CLR 08/03 A3010
W 91 nm 193' KUIL 161131Z 17012G31KT 130V200 2SM -RA BR SCT007 OVC012 13/12 A2991
NW 93 nm 92' CYCD 160400Z 12008G15KT 080V160 6SM -RA BR SCT008 BKN012 BKN022 OVC045 12/12 A2999
TAFs for airports near PAE, sorted by distance:
N 0 nm 606' KPAE TAF KPAE 161120Z 1612/1712 15010KT P6SM -RA SCT040 BKN070 OVC090
  FM161600 19012KT P6SM SCT020 BKN050 OVC100
  FM162300 19015G20KT 6SM -RA BKN022 OVC040
  FM170300 16008KT P6SM OVC050
S 22 nm 21' KBFI TAF KBFI 161120Z 1612/1712 14006KT P6SM BKN070 OVC110
  FM161600 18008KT P6SM SCT025 BKN050 OVC100
  FM162300 17008KT P6SM BKN070 OVC120
  FM170300 16005KT P6SM VCSH BKN070 OVC080
  FM171000 19003KT P6SM BKN030 OVC050
S 27 nm 432' KSEA TAF KSEA 161120Z 1612/1718 15005KT P6SM FEW040 FEW060 OVC100
  FM161600 19008KT P6SM SCT020 BKN050 OVC100
  FM162300 19007KT P6SM BKN070 OVC120
  FM170500 20006KT P6SM VCSH BKN050 OVC070
  FM171000 21003KT P6SM BKN025 OVC050
  FM171500 24003KT P6SM OVC025
NW 30 nm 47' KNUW TAF KNUW 1607/1707 15020G30KT 8000 -RA SCT014 BKN030 OVC090 640809 540209 541103 QNH2999INS
  TEMPO 1608/1612 15025G46KT 3200 -RA BR BKN008 OVC015
  FM161400 18020G35KT 9999 VCSH SCT025 OVC060 640708 540109 540903 QNH2995INS
  TEMPO 1616/1622 16015G22KT 3200 -RA BKN015 OVC030
  FM170600 20015G28KT 6000 RA BKN010 OVC035 640609 540109 QNH2993INS T08/1612Z T16/1622Z FS30014
SW 31 nm 444' KPWT TAF KPWT 161120Z 1612/1712 22003KT P6SM OVC035
  FM161600 19018KT P6SM SCT015 BKN040 OVC080
  FM162300 19012KT P6SM -RA BKN015 OVC030
  FM170300 20004KT P6SM OVC050
  FM171000 VRB02KT P6SM OVC015
S 46 nm 322' KTCM TAF KTCM 160500Z 1605/1711 20006KT 9999 OVC045 QNH3012INS
  BECMG 1611/1612 17005KT 9999 FEW060 BKN180 QNH3005INS
  BECMG 1617/1618 19010G15KT 9999 BKN100 OVC200 QNH3000INS
  BECMG 1710/1711 19006KT 9999 VCSH SCT015 OVC035 QNH2979INS TX18/1623Z TN08/1613Z
W 50 nm 291' KCLM TAF KCLM 161120Z 1612/1712 VRB04KT 4SM -RA BR FEW029 BKN100 BKN110
  FM161500 25003KT 3SM -RA BR OVC025
  FM170300 28004KT P6SM OVC020
  FM170900 30003KT P6SM OVC010
S 51 nm 301' KGRF TAF KGRF 160500Z 1605/1711 14004KT 9999 BKN050 QNH3011INS
  BECMG 1609/1610 20005KT 9999 SCT040 BKN080 QNH3009INS
  BECMG 1617/1618 20010G18KT 9999 SCT030 QNH3001INS
  BECMG 1708/1709 20005KT 9999 BKN030 QNH2977INS TX17/1622Z TN10/1615Z
N 54 nm 171' KBLI TAF KBLI 161120Z 1612/1712 19012KT P6SM OVC070
  FM170300 16015KT P6SM OVC040
  FM170900 16010KT P6SM OVC020
SW 61 nm 207' KOLM TAF KOLM 161120Z 1612/1712 20007KT P6SM BKN045 OVC060
  FM161500 18007KT P6SM OVC050
  FM170000 21005KT P6SM OVC100
  FM170600 22003KT P6SM OVC050
  FM171000 20005KT P6SM OVC020
SW 87 nm 17' KHQM TAF KHQM 161120Z 1612/1712 17013KT P6SM OVC020
  FM161800 18015G25KT P6SM -RA BKN020 OVC040
  FM170200 18010KT P6SM OVC030
  FM170600 15007KT P6SM OVC015
E 89 nm 1248' KEAT TAF KEAT 161126Z 1612/1712 28004KT P6SM SCT100 SCT200
  FM162000 12004KT P6SM FEW150 SCT250
  FM170300 VRB02KT P6SM SCT120 SCT250
  FM171000 30006KT P6SM SCT120 BKN180

Shortcut to this page: http://wxbay.com.

Data may contain errors.